• Join FlightAware (Why Join?)
  • Login
  • US Flag 
09:43PM EDT


 

Airport Tracker/Info


-or-


 

Live Flight TrackerFlight Track Log ✈ EJA691 ✈ 18-Feb-2014 ✈ KIND - KTOL

Flight Track Log - Related Links

Times and Time Zones

All times are in EST time to prevent confusion due to time zone crossing. See the EJA691 flight status page for this flight to view local times or setup timezone preferences in your user account.

Time Position Orientation Groundspeed Altitude Reporting Facility
EST Latitude Longitude Course Direction KTS MPH feet Rate Location/Type
07:46PM 39.7167 -86.2833 218° Southwest 155 178 1,300  Level Indianapolis TRACON
07:46PM 39.7000 -86.3000 193° South 153 176 2,700 4,500 Climbing Indianapolis TRACON
07:47PM 39.6833 -86.3500 247° West 143 165 7,300 4,200 Climbing Indianapolis TRACON
07:48PM 39.6500 -86.4000 229° Southwest 184 212 11,200 2,340 Climbing Indianapolis TRACON
07:50PM 39.7375 -86.4089 356° North 287 330 13,000 1,020 Climbing Chicago Center
07:51PM 39.8053 -86.3772 20° North 302 348 13,500 1,020 Climbing Indianapolis Center
07:52PM 39.8953 -86.3317 21° North 328 377 14,900 720 Climbing Indianapolis Center
07:53PM 39.9628 -86.2117 54° Northeast 393 452 15,000  Climbing Indianapolis Center
07:54PM 40.0281 -86.1000 53° Northeast 390 449 15,000  Level Indianapolis Center
07:55PM 40.0950 -85.9900 51° Northeast 388 447 15,000  Level Indianapolis Center
07:56PM 40.1733 -85.8606 52° Northeast 388 447 15,000  Level Indianapolis Center
07:57PM 40.2389 -85.7486 52° Northeast 382 440 15,000  Level Indianapolis Center
07:58PM 40.3008 -85.6444 52° Northeast 377 434 15,000  Level Indianapolis Center
07:59PM 40.3639 -85.5378 52° Northeast 376 433 15,000  Level Indianapolis Center
08:00PM 40.4261 -85.4308 53° Northeast 374 430 15,000  Level Indianapolis Center
08:01PM 40.4919 -85.3178 53° Northeast 373 429 15,000  Level Indianapolis Center
08:02PM 40.5667 -85.1939 52° Northeast 373 429 15,100  Climbing Indianapolis Center
08:03PM 40.6303 -85.0831 53° Northeast 377 434 15,100  Level Indianapolis Center
08:04PM 40.6953 -84.9714 52° Northeast 379 436 15,100 -60 Level Indianapolis Center
08:05PM 40.7931 -84.8022 53° Northeast 384 442 15,000 -60 Descending Chicago Center
08:07PM 40.8564 -84.6922 53° Northeast 381 438 15,000  Level Chicago Center
08:08PM 40.9206 -84.5806 53° Northeast 382 440 15,000 -420 Level Chicago Center
08:09PM 40.9853 -84.4708 52° Northeast 381 438 14,200 -1,020 Descending Chicago Center
08:10PM 41.0828 -84.3628 40° Northeast 382 440 13,000 -900 Descending Chicago Center
08:11PM 41.2069 -84.2269 39° Northeast 381 438 11,900 -720 Descending Indianapolis Center
08:12PM 41.2858 -84.1397 40° Northeast 374 430 11,200 -1,200 Descending Indianapolis Center
08:13PM 41.3603 -84.0578 40° Northeast 341 392 9,400 -1,860 Descending Cleveland Center
08:14PM 41.4278 -83.9861 39° Northeast 317 365 7,400 -2,220 Descending Cleveland Center
08:15PM 41.4767 -83.8994 53° Northeast 292 336 4,900 -2,220 Descending Cleveland Center
08:16PM 41.5514 -83.8333 34° Northeast 283 326 2,900 -1,260 Descending Cleveland Center
08:17PM 41.5839 -83.7650 58° Northeast 246 283 2,300 -480 Descending Cleveland Center
08:18PM 41.6011 -83.6897 73° East 226 260 2,000 -180 Descending Cleveland Center
08:19PM 41.6456 -83.6742 15° North 229 264 2,000  Level Cleveland Center
08:20PM 41.6197 -83.7100 226° Southwest 173 199 2,000 -300 Level Cleveland Center
08:21PM 41.6069 -83.7469 245° Southwest 134 154 1,500 -540 Descending Cleveland Center